Weather at Khalkhalah Air Base

Public forecast

Using degrees Celsius for public forecast. Weather courtesy of forecast.io.

Closest aviation weather report (METAR) to Khalkhalah Air Base

Closest report is Damascus International Airport, 20.2 nm (37.4 km) N.

2024/05/24 20:00 (retrieved 29 minutes ago)

OSDI 242000Z 23010KT CAVOK 18/10 Q1011

Closest aviation forecast (TAF) to Khalkhalah Air Base

Closest forecast is Damascus International Airport, 20.2 nm (37.4 km) N.

2024/05/24 18:06 (retrieved 2 hours ago)

TAF OSDI 241600Z 2418/2524 24020KT CAVOK TEMPO 2512/2518 23015G25KT